Lewisville, North Carolina
Current Conditions -  °F | °C
As of 11:54 AM on Tuesday 27 Jan 2015 (Local Time) from KINT Reporting Station
Clear Clear  
Wind Chill: 32°   Ceiling: Unl
Heat Index: 39°   Visibility: 10mi
Dew Point:   Wind: 10mph
Humidity: 28%   Direction: 310°NW
Pressure: 29.84"   Gusts: NA
Location:  36.1°N, 80.42°W
Report Text: KINT 271654Z 31009KT 10SM CLR 04/M13 A2984 RMK AO2 SLP107 T00391133
Loading
Personal Weather Stations






























Interactive Weather Map New forecast layout! Learn more

10-Day Weather Forecast

Advertisements
Track Severe Weather on mobile